Time;durP1;ratioP1;P1;durP2;ratioP2;P2;SDS_P1;SDS_P2;PMS_P1;PMS_P2;Temp;Humidity;BMP_temperature;BMP_pressure;BME280_temperature;BME280_humidity;BME280_pressure;Samples;Min_cycle;Max_cycle;Signal;HPM_P1;HPM_P2
2023/10/27 00:00:37;;;;;;;64.78;33.38;;;;;;;;;;5028643;28;20190;-73
2023/10/27 00:03:03;;;;;;;60.78;31.52;;;;;;;;;;5028792;28;20444;-73
2023/10/27 00:05:28;;;;;;;59.22;31.52;;;;;;;;;;5035271;28;20190;-74
2023/10/27 00:07:54;;;;;;;63.10;31.05;;;;;;;;;;5028175;28;20192;-74
2023/10/27 00:10:19;;;;;;;65.43;30.70;;;;;;;;;;5028278;28;20198;-73
2023/10/27 00:12:45;;;;;;;61.45;30.83;;;;;;;;;;5038637;28;20177;-73
2023/10/27 00:15:10;;;;;;;64.55;33.40;;;;;;;;;;5028241;28;20303;-73
2023/10/27 00:17:36;;;;;;;63.10;31.40;;;;;;;;;;5028323;28;20551;-73
2023/10/27 00:20:05;;;;;;;63.22;31.23;;;;;;;;;;5029371;28;20513;-73
2023/10/27 00:22:32;;;;;;;65.00;32.13;;;;;;;;;;5040298;28;20264;-73
2023/10/27 00:24:58;;;;;;;56.35;29.02;;;;;;;;;;5029367;28;20710;-73
2023/10/27 00:27:24;;;;;;;64.22;29.95;;;;;;;;;;5044097;28;20198;-73
2023/10/27 00:29:49;;;;;;;62.33;31.38;;;;;;;;;;5028685;28;20645;-73
2023/10/27 00:32:14;;;;;;;62.63;29.92;;;;;;;;;;5029911;28;20182;-72
2023/10/27 00:34:40;;;;;;;54.90;29.35;;;;;;;;;;5026886;28;20186;-73
2023/10/27 00:37:05;;;;;;;60.35;31.08;;;;;;;;;;5032700;28;20573;-73
2023/10/27 00:39:30;;;;;;;62.53;32.00;;;;;;;;;;5034967;28;20196;-73
2023/10/27 00:41:56;;;;;;;61.25;31.00;;;;;;;;;;5022663;28;20305;-73
2023/10/27 00:44:22;;;;;;;63.30;31.50;;;;;;;;;;5027806;28;20186;-72
2023/10/27 00:46:49;;;;;;;65.78;32.28;;;;;;;;;;5009477;28;20186;-72
2023/10/27 00:49:14;;;;;;;65.45;31.25;;;;;;;;;;5018469;28;20246;-72
2023/10/27 00:51:41;;;;;;;67.88;31.83;;;;;;;;;;5028851;28;20182;-72
2023/10/27 00:54:11;;;;;;;72.22;33.05;;;;;;;;;;5026691;28;20305;-72
2023/10/27 00:56:36;;;;;;;67.30;33.45;;;;;;;;;;5011470;28;20210;-74
2023/10/27 00:59:02;;;;;;;63.45;31.08;;;;;;;;;;5023555;28;20295;-74
2023/10/27 01:01:27;;;;;;;58.28;29.77;;;;;;;;;;5026786;28;20301;-74
2023/10/27 01:03:55;;;;;;;67.45;32.03;;;;;;;;;;5029770;28;20185;-74
2023/10/27 01:06:21;;;;;;;68.40;31.27;;;;;;;;;;5034113;28;20178;-75
2023/10/27 01:08:47;;;;;;;62.95;30.25;;;;;;;;;;5042488;28;20189;-73
2023/10/27 01:11:12;;;;;;;65.85;31.50;;;;;;;;;;5031766;28;20185;-72
2023/10/27 01:13:38;;;;;;;63.08;30.40;;;;;;;;;;5034379;28;20256;-73
2023/10/27 01:16:04;;;;;;;58.20;30.02;;;;;;;;;;5032130;28;20245;-74
2023/10/27 01:18:29;;;;;;;73.68;31.42;;;;;;;;;;5029579;28;20194;-73
2023/10/27 01:20:54;;;;;;;63.00;30.92;;;;;;;;;;5024942;28;20186;-74
2023/10/27 01:23:20;;;;;;;65.07;30.73;;;;;;;;;;5037197;28;20210;-74
2023/10/27 01:25:45;;;;;;;67.13;30.63;;;;;;;;;;5023657;28;20509;-74
2023/10/27 01:28:10;;;;;;;64.47;31.13;;;;;;;;;;5027058;28;20194;-74
2023/10/27 01:30:36;;;;;;;63.10;30.42;;;;;;;;;;5033233;28;20264;-74
2023/10/27 01:33:01;;;;;;;64.38;30.65;;;;;;;;;;5026059;28;20195;-74
2023/10/27 01:35:27;;;;;;;60.28;29.10;;;;;;;;;;5028964;28;20278;-74
2023/10/27 01:37:52;;;;;;;59.38;29.55;;;;;;;;;;5025453;28;20197;-75
2023/10/27 01:40:17;;;;;;;55.03;27.90;;;;;;;;;;5031057;28;20233;-74
2023/10/27 01:42:43;;;;;;;54.17;27.88;;;;;;;;;;5028539;28;20291;-74
2023/10/27 01:45:09;;;;;;;57.92;27.60;;;;;;;;;;5032260;28;20536;-73
2023/10/27 01:47:34;;;;;;;53.85;27.38;;;;;;;;;;5025087;28;20236;-73
2023/10/27 01:50:00;;;;;;;56.95;26.85;;;;;;;;;;5021001;28;20182;-74
2023/10/27 01:52:25;;;;;;;51.63;27.73;;;;;;;;;;5030781;28;20213;-74
2023/10/27 01:54:51;;;;;;;52.17;26.55;;;;;;;;;;5042241;28;20197;-73
2023/10/27 01:57:16;;;;;;;49.50;26.35;;;;;;;;;;5014810;28;20669;-73
2023/10/27 01:59:42;;;;;;;50.45;25.88;;;;;;;;;;5030303;28;20205;-73
2023/10/27 02:02:08;;;;;;;49.60;25.55;;;;;;;;;;5030332;28;20312;-73
2023/10/27 02:04:36;;;;;;;51.92;25.85;;;;;;;;;;5026766;28;20189;-73
2023/10/27 02:07:01;;;;;;;51.63;26.05;;;;;;;;;;5052863;28;20190;-74
2023/10/27 02:09:28;;;;;;;50.97;26.15;;;;;;;;;;5033493;28;20186;-74
2023/10/27 02:11:53;;;;;;;49.00;25.02;;;;;;;;;;5027976;28;20527;-74
2023/10/27 02:14:18;;;;;;;51.33;26.05;;;;;;;;;;5020760;28;20224;-74
2023/10/27 02:16:44;;;;;;;52.33;24.77;;;;;;;;;;5023764;28;20249;-73
2023/10/27 02:19:09;;;;;;;50.75;25.50;;;;;;;;;;5031390;28;20650;-73
2023/10/27 02:21:35;;;;;;;47.95;24.67;;;;;;;;;;5030454;28;20214;-74
2023/10/27 02:24:00;;;;;;;49.75;25.63;;;;;;;;;;5038273;28;20193;-74
2023/10/27 02:26:26;;;;;;;51.85;25.27;;;;;;;;;;5026677;28;20193;-74
2023/10/27 02:28:51;;;;;;;54.05;27.05;;;;;;;;;;5029875;28;20205;-73
2023/10/27 02:31:16;;;;;;;54.30;26.55;;;;;;;;;;5031783;28;20198;-73
2023/10/27 02:33:42;;;;;;;53.92;26.27;;;;;;;;;;5024305;28;20179;-73
2023/10/27 02:36:07;;;;;;;50.88;24.90;;;;;;;;;;5030337;28;20246;-72
2023/10/27 02:38:33;;;;;;;52.80;25.23;;;;;;;;;;5024322;28;20186;-73
2023/10/27 02:41:06;;;;;;;52.33;26.33;;;;;;;;;;5030536;28;20230;-73
2023/10/27 02:43:33;;;;;;;57.08;26.60;;;;;;;;;;5029803;28;20212;-73
2023/10/27 02:46:03;;;;;;;49.03;25.95;;;;;;;;;;5031209;28;20182;-73
2023/10/27 02:48:28;;;;;;;48.45;24.48;;;;;;;;;;5030499;28;20334;-72
2023/10/27 02:50:53;;;;;;;55.40;26.25;;;;;;;;;;5037009;28;20230;-73
2023/10/27 02:53:19;;;;;;;52.88;25.70;;;;;;;;;;5038452;28;20192;-73
2023/10/27 02:55:44;;;;;;;56.17;25.55;;;;;;;;;;5033311;28;20269;-73
2023/10/27 02:58:10;;;;;;;56.72;26.52;;;;;;;;;;5029703;28;20182;-72
2023/10/27 03:00:42;;;;;;;52.83;26.65;;;;;;;;;;5025687;28;20257;-72
2023/10/27 03:03:08;;;;;;;56.88;26.48;;;;;;;;;;5029920;28;20210;-73
2023/10/27 03:05:33;;;;;;;55.10;25.90;;;;;;;;;;5040420;28;20235;-73
2023/10/27 03:07:58;;;;;;;57.05;26.05;;;;;;;;;;5016454;28;20195;-73
2023/10/27 03:10:24;;;;;;;54.47;26.45;;;;;;;;;;5030353;28;20289;-73
2023/10/27 03:12:49;;;;;;;63.25;28.25;;;;;;;;;;5017198;28;20259;-73
2023/10/27 03:15:15;;;;;;;56.60;27.25;;;;;;;;;;5027419;28;20703;-73
2023/10/27 03:17:41;;;;;;;60.67;28.80;;;;;;;;;;5030104;28;20688;-73
2023/10/27 03:20:07;;;;;;;64.85;28.23;;;;;;;;;;5024322;28;20687;-74
2023/10/27 03:22:32;;;;;;;59.83;28.55;;;;;;;;;;5026447;28;20194;-74
2023/10/27 03:24:58;;;;;;;65.35;29.17;;;;;;;;;;5015815;28;20198;-74
2023/10/27 03:27:24;;;;;;;65.45;29.80;;;;;;;;;;5029349;28;20747;-74
2023/10/27 03:29:50;;;;;;;57.55;27.10;;;;;;;;;;5019171;28;20186;-74
2023/10/27 03:32:16;;;;;;;65.97;29.45;;;;;;;;;;5028241;28;20174;-74
2023/10/27 03:34:43;;;;;;;61.85;29.23;;;;;;;;;;5037814;28;20189;-74
2023/10/27 03:37:09;;;;;;;64.03;29.42;;;;;;;;;;5031507;28;20182;-74
2023/10/27 03:39:35;;;;;;;68.15;31.10;;;;;;;;;;5017852;28;20186;-73
2023/10/27 03:42:00;;;;;;;72.70;30.48;;;;;;;;;;5028183;28;20228;-72
2023/10/27 03:44:26;;;;;;;67.07;30.67;;;;;;;;;;5029733;28;20186;-73
2023/10/27 03:46:51;;;;;;;67.03;30.27;;;;;;;;;;5016227;28;20187;-72
2023/10/27 03:49:17;;;;;;;66.63;29.83;;;;;;;;;;5028252;28;20265;-72
2023/10/27 03:51:42;;;;;;;74.53;30.92;;;;;;;;;;5027683;28;20606;-72
2023/10/27 03:54:07;;;;;;;68.22;31.20;;;;;;;;;;5030958;28;20683;-73
2023/10/27 03:56:33;;;;;;;65.07;30.02;;;;;;;;;;5017923;28;20198;-73
2023/10/27 03:58:58;;;;;;;68.10;30.75;;;;;;;;;;5029650;28;20273;-73
2023/10/27 04:01:27;;;;;;;69.13;30.42;;;;;;;;;;5027476;28;20189;-73
2023/10/27 04:03:56;;;;;;;69.68;31.33;;;;;;;;;;5016444;28;20218;-73
2023/10/27 04:06:21;;;;;;;71.20;30.80;;;;;;;;;;5030882;28;20645;-73
2023/10/27 04:08:47;;;;;;;69.20;29.52;;;;;;;;;;5017802;28;20197;-73
2023/10/27 04:11:13;;;;;;;74.05;30.45;;;;;;;;;;5011684;28;20209;-73
2023/10/27 04:13:39;;;;;;;74.25;31.33;;;;;;;;;;5024367;28;20675;-73
2023/10/27 04:16:04;;;;;;;63.75;28.58;;;;;;;;;;5020838;28;20245;-73
2023/10/27 04:18:30;;;;;;;77.75;30.60;;;;;;;;;;5018635;28;20528;-73
2023/10/27 04:20:56;;;;;;;72.68;30.33;;;;;;;;;;5028527;28;20272;-73
2023/10/27 04:23:21;;;;;;;72.95;30.85;;;;;;;;;;5023251;28;20241;-73
2023/10/27 04:25:47;;;;;;;79.03;30.73;;;;;;;;;;5039734;28;20260;-73
2023/10/27 04:28:13;;;;;;;77.13;30.45;;;;;;;;;;5025007;28;20592;-73
2023/10/27 04:30:38;;;;;;;77.47;30.20;;;;;;;;;;5016773;28;20368;-74
2023/10/27 04:33:10;;;;;;;71.68;30.25;;;;;;;;;;5011300;28;20184;-74
2023/10/27 04:35:36;;;;;;;71.22;29.92;;;;;;;;;;5041948;28;20189;-73
2023/10/27 04:38:01;;;;;;;73.85;29.33;;;;;;;;;;5027090;28;20550;-74
2023/10/27 04:40:31;;;;;;;72.85;30.80;;;;;;;;;;5021922;28;20194;-74
2023/10/27 04:42:58;;;;;;;71.93;29.55;;;;;;;;;;5016917;28;20212;-74
2023/10/27 04:45:24;;;;;;;73.63;30.92;;;;;;;;;;5015296;28;20240;-75
2023/10/27 04:47:49;;;;;;;76.90;29.77;;;;;;;;;;5011462;28;20186;-74
2023/10/27 04:50:17;;;;;;;76.05;30.90;;;;;;;;;;5024049;28;20547;-74
2023/10/27 04:52:43;;;;;;;74.55;30.45;;;;;;;;;;5020134;28;20289;-74
2023/10/27 04:55:08;;;;;;;75.90;30.25;;;;;;;;;;5010574;28;20319;-73
2023/10/27 04:57:35;;;;;;;84.43;31.15;;;;;;;;;;5028103;28;20186;-74
2023/10/27 05:00:01;;;;;;;85.28;31.80;;;;;;;;;;5027184;28;20197;-75
2023/10/27 05:02:26;;;;;;;78.30;31.85;;;;;;;;;;5021601;28;20742;-74
2023/10/27 05:04:52;;;;;;;77.45;31.25;;;;;;;;;;5024961;28;20199;-74
2023/10/27 05:07:17;;;;;;;77.50;30.48;;;;;;;;;;5043776;28;20349;-75
2023/10/27 05:09:42;;;;;;;76.75;30.38;;;;;;;;;;5028921;28;20190;-75
2023/10/27 05:12:08;;;;;;;84.30;32.50;;;;;;;;;;5011991;28;20534;-75
2023/10/27 05:14:34;;;;;;;84.95;31.27;;;;;;;;;;5019619;28;20218;-75
2023/10/27 05:17:00;;;;;;;84.32;31.10;;;;;;;;;;5026942;28;20230;-75
2023/10/27 05:19:26;;;;;;;86.18;30.27;;;;;;;;;;5026843;28;20209;-75
2023/10/27 05:21:52;;;;;;;90.25;31.50;;;;;;;;;;5021746;28;20293;-75
2023/10/27 05:24:17;;;;;;;83.20;31.42;;;;;;;;;;5039815;28;20179;-76
2023/10/27 05:26:43;;;;;;;83.20;31.38;;;;;;;;;;5029359;28;20193;-75
2023/10/27 05:29:08;;;;;;;90.80;31.65;;;;;;;;;;5025618;28;20215;-75
2023/10/27 05:31:34;;;;;;;90.75;32.65;;;;;;;;;;5037201;28;20418;-76
2023/10/27 05:34:00;;;;;;;83.72;31.92;;;;;;;;;;5026307;28;20206;-76
2023/10/27 05:36:26;;;;;;;89.55;30.13;;;;;;;;;;5029853;28;20225;-76
2023/10/27 05:38:51;;;;;;;84.65;32.85;;;;;;;;;;5028372;28;20182;-76
2023/10/27 05:41:17;;;;;;;86.80;31.80;;;;;;;;;;5020252;28;20671;-76
2023/10/27 05:43:42;;;;;;;90.95;30.33;;;;;;;;;;5025248;28;20302;-77
2023/10/27 05:46:08;;;;;;;79.38;30.15;;;;;;;;;;5027160;28;20191;-77
2023/10/27 05:48:33;;;;;;;77.55;29.52;;;;;;;;;;5007891;28;20634;-76
2023/10/27 05:50:59;;;;;;;72.97;28.45;;;;;;;;;;5037482;28;20236;-77
2023/10/27 05:53:25;;;;;;;76.18;28.65;;;;;;;;;;5028721;28;20178;-77
2023/10/27 05:55:51;;;;;;;82.03;29.80;;;;;;;;;;5011769;28;20201;-76
2023/10/27 05:58:17;;;;;;;71.63;29.08;;;;;;;;;;5008444;28;20214;-76
2023/10/27 06:00:42;;;;;;;74.13;27.20;;;;;;;;;;5027989;28;20217;-76
2023/10/27 06:03:07;;;;;;;75.85;28.35;;;;;;;;;;5031780;28;20222;-76
2023/10/27 06:05:33;;;;;;;71.65;27.83;;;;;;;;;;5026229;28;20194;-75
2023/10/27 06:07:58;;;;;;;72.78;27.60;;;;;;;;;;5037635;28;20631;-76
2023/10/27 06:10:24;;;;;;;73.97;26.67;;;;;;;;;;5007614;28;20682;-75
2023/10/27 06:12:49;;;;;;;71.03;27.10;;;;;;;;;;5027059;28;20230;-75
2023/10/27 06:15:15;;;;;;;78.00;28.65;;;;;;;;;;5044662;28;20311;-76
2023/10/27 06:17:40;;;;;;;73.10;28.38;;;;;;;;;;5026491;28;20598;-75
2023/10/27 06:20:06;;;;;;;71.88;27.95;;;;;;;;;;5031619;28;20266;-76
2023/10/27 06:22:32;;;;;;;69.97;26.80;;;;;;;;;;5031547;28;20217;-75
2023/10/27 06:24:57;;;;;;;73.32;27.75;;;;;;;;;;5022736;28;20197;-75
2023/10/27 06:27:23;;;;;;;79.50;28.40;;;;;;;;;;5029216;28;20186;-76
2023/10/27 06:29:49;;;;;;;74.88;27.30;;;;;;;;;;5020324;28;20199;-75
2023/10/27 06:32:14;;;;;;;102.75;29.58;;;;;;;;;;5028192;28;20182;-75
2023/10/27 06:34:40;;;;;;;70.85;26.58;;;;;;;;;;5027240;28;20609;-76
2023/10/27 06:37:06;;;;;;;76.57;28.63;;;;;;;;;;5024063;28;20773;-75
2023/10/27 06:39:32;;;;;;;75.57;28.33;;;;;;;;;;5028998;28;20598;-76
2023/10/27 06:41:58;;;;;;;72.38;27.65;;;;;;;;;;5025418;28;20242;-74
2023/10/27 06:44:24;;;;;;;69.55;27.15;;;;;;;;;;5032173;28;20195;-74
2023/10/27 06:46:49;;;;;;;76.05;28.77;;;;;;;;;;5043740;28;20193;-75
2023/10/27 06:49:15;;;;;;;84.90;29.10;;;;;;;;;;5019440;28;20197;-75
2023/10/27 06:51:41;;;;;;;82.60;29.75;;;;;;;;;;5028140;28;20186;-75
2023/10/27 06:54:06;;;;;;;77.15;28.23;;;;;;;;;;5030557;28;20189;-75
2023/10/27 06:56:31;;;;;;;86.25;28.20;;;;;;;;;;5030930;28;20198;-76
2023/10/27 06:58:57;;;;;;;83.68;30.08;;;;;;;;;;5033523;28;20187;-75
2023/10/27 07:01:23;;;;;;;84.53;29.95;;;;;;;;;;5023991;28;20259;-75
2023/10/27 07:03:48;;;;;;;80.80;29.50;;;;;;;;;;5024914;28;20633;-75
2023/10/27 07:06:14;;;;;;;88.60;31.08;;;;;;;;;;5031353;28;20202;-76
2023/10/27 07:08:39;;;;;;;81.28;29.80;;;;;;;;;;5020846;28;20205;-76
2023/10/27 07:11:04;;;;;;;88.97;29.27;;;;;;;;;;5041342;28;20190;-75
2023/10/27 07:13:30;;;;;;;85.43;30.80;;;;;;;;;;5022574;28;20186;-75
2023/10/27 07:15:56;;;;;;;93.43;30.15;;;;;;;;;;5046592;28;20312;-75
2023/10/27 07:18:22;;;;;;;82.78;29.63;;;;;;;;;;5041363;28;20186;-75
2023/10/27 07:20:48;;;;;;;81.15;30.20;;;;;;;;;;5026982;28;20598;-74
2023/10/27 07:23:16;;;;;;;76.10;28.45;;;;;;;;;;4999909;28;20561;-75
2023/10/27 07:25:41;;;;;;;80.43;29.70;;;;;;;;;;5028575;28;20673;-75
2023/10/27 07:28:07;;;;;;;81.10;29.88;;;;;;;;;;5029428;28;20273;-75
2023/10/27 07:30:33;;;;;;;81.63;30.75;;;;;;;;;;5035991;28;20214;-75
2023/10/27 07:32:58;;;;;;;82.60;29.77;;;;;;;;;;5026044;28;20209;-76
2023/10/27 07:35:24;;;;;;;89.65;31.38;;;;;;;;;;5026501;28;20214;-76
2023/10/27 07:37:49;;;;;;;93.47;32.28;;;;;;;;;;5021945;28;20287;-76
2023/10/27 07:40:15;;;;;;;93.47;30.75;;;;;;;;;;5041072;28;20197;-76
2023/10/27 07:42:41;;;;;;;85.35;31.13;;;;;;;;;;5032463;28;20241;-79
2023/10/27 07:45:07;;;;;;;91.88;32.42;;;;;;;;;;5036006;28;20239;-76
2023/10/27 07:47:33;;;;;;;88.15;29.10;;;;;;;;;;5020032;28;20194;-76
2023/10/27 07:50:00;;;;;;;87.70;30.98;;;;;;;;;;5043873;28;20189;-76
2023/10/27 07:52:26;;;;;;;85.50;32.28;;;;;;;;;;5036393;28;20182;-76
2023/10/27 07:54:52;;;;;;;92.93;30.30;;;;;;;;;;5042194;28;20240;-76
2023/10/27 07:57:17;;;;;;;93.32;31.25;;;;;;;;;;5011308;28;20240;-76
2023/10/27 07:59:43;;;;;;;83.97;30.08;;;;;;;;;;5030920;28;20323;-77
2023/10/27 08:02:09;;;;;;;90.07;30.67;;;;;;;;;;5028300;28;20657;-77
2023/10/27 08:04:37;;;;;;;89.18;29.98;;;;;;;;;;5010198;28;20198;-76
2023/10/27 08:07:06;;;;;;;84.85;30.60;;;;;;;;;;5032897;28;20309;-77
2023/10/27 08:09:31;;;;;;;88.15;30.55;;;;;;;;;;5027154;28;20645;-77
2023/10/27 08:11:57;;;;;;;96.53;31.48;;;;;;;;;;5028977;28;20266;-79
2023/10/27 08:14:23;;;;;;;93.60;31.02;;;;;;;;;;4979992;28;20206;-77
2023/10/27 08:16:48;;;;;;;85.65;29.23;;;;;;;;;;5025593;28;20233;-76
2023/10/27 08:19:14;;;;;;;86.97;31.40;;;;;;;;;;5027767;28;20194;-76
2023/10/27 08:21:40;;;;;;;81.90;30.02;;;;;;;;;;4328705;28;10000814;-76
2023/10/27 08:24:06;;;;;;;77.82;29.20;;;;;;;;;;5013267;28;20217;-76
2023/10/27 08:26:31;;;;;;;76.53;28.88;;;;;;;;;;5037109;28;20225;-76
2023/10/27 08:28:57;;;;;;;77.28;29.60;;;;;;;;;;5024544;28;20186;-77
2023/10/27 08:31:22;;;;;;;77.93;28.70;;;;;;;;;;5024900;28;20386;-76
2023/10/27 08:33:48;;;;;;;78.07;28.30;;;;;;;;;;5033469;28;20197;-76
2023/10/27 08:36:15;;;;;;;78.68;28.20;;;;;;;;;;5021095;28;20204;-76
2023/10/27 08:38:41;;;;;;;81.70;29.45;;;;;;;;;;4997454;28;20653;-76
2023/10/27 08:41:07;;;;;;;82.47;30.35;;;;;;;;;;5017759;28;20182;-76
2023/10/27 08:43:34;;;;;;;70.50;26.92;;;;;;;;;;5023908;28;20701;-78
2023/10/27 08:46:03;;;;;;;69.47;27.13;;;;;;;;;;5041473;28;20678;-77
2023/10/27 08:48:30;;;;;;;65.40;25.90;;;;;;;;;;5027648;28;20197;-78
2023/10/27 08:50:57;;;;;;;74.13;26.35;;;;;;;;;;5042487;28;20588;-79
2023/10/27 08:53:23;;;;;;;69.65;26.45;;;;;;;;;;5024214;28;20187;-78
2023/10/27 08:55:49;;;;;;;60.85;24.23;;;;;;;;;;5031157;28;20565;-79
2023/10/27 08:58:15;;;;;;;64.88;25.08;;;;;;;;;;5028577;28;20197;-78
2023/10/27 09:00:46;;;;;;;61.35;24.48;;;;;;;;;;5036105;28;20588;-77
2023/10/27 09:03:13;;;;;;;57.40;23.60;;;;;;;;;;5013911;28;20214;-76
2023/10/27 09:05:39;;;;;;;56.10;22.98;;;;;;;;;;5040721;28;20294;-77
2023/10/27 09:08:04;;;;;;;55.95;22.88;;;;;;;;;;5022868;28;20210;-77
2023/10/27 09:10:30;;;;;;;53.25;22.70;;;;;;;;;;5015258;28;20244;-77
2023/10/27 09:12:59;;;;;;;49.92;21.88;;;;;;;;;;5024549;28;20215;-78
2023/10/27 09:15:25;;;;;;;55.42;22.80;;;;;;;;;;5033293;28;20266;-77
2023/10/27 09:17:56;;;;;;;51.75;21.63;;;;;;;;;;5022493;28;20702;-76
2023/10/27 09:20:23;;;;;;;50.95;22.20;;;;;;;;;;5027754;28;20200;-76
2023/10/27 09:23:04;;;;;;;52.20;21.55;;;;;;;;;;5031043;28;20205;-77
2023/10/27 09:25:34;;;;;;;51.42;21.77;;;;;;;;;;5044193;28;20229;-77
2023/10/27 09:28:05;;;;;;;46.75;20.92;;;;;;;;;;5026436;28;20222;-77
2023/10/27 09:30:34;;;;;;;43.95;20.85;;;;;;;;;;5045373;28;20190;-77
2023/10/27 09:33:18;;;;;;;40.80;19.80;;;;;;;;;;5027288;28;20229;-76
2023/10/27 09:35:46;;;;;;;40.42;19.08;;;;;;;;;;5024957;28;20192;-76
2023/10/27 09:38:13;;;;;;;38.70;18.98;;;;;;;;;;5031408;28;20236;-78
2023/10/27 09:40:40;;;;;;;43.85;19.20;;;;;;;;;;5031627;28;20502;-76
2023/10/27 09:43:15;;;;;;;41.65;18.90;;;;;;;;;;5021719;28;20289;-75
2023/10/27 09:45:50;;;;;;;34.10;17.20;;;;;;;;;;5009561;28;20602;-75
2023/10/27 09:48:20;;;;;;;33.70;16.77;;;;;;;;;;5030906;28;20193;-77
2023/10/27 09:50:47;;;;;;;36.10;17.35;;;;;;;;;;5028333;28;20243;-77
2023/10/27 09:53:14;;;;;;;31.95;16.48;;;;;;;;;;5029109;28;20232;-76
2023/10/27 09:55:40;;;;;;;33.72;17.95;;;;;;;;;;5030789;28;20641;-75
2023/10/27 09:58:06;;;;;;;34.60;16.92;;;;;;;;;;5032196;28;20265;-76
2023/10/27 10:00:33;;;;;;;29.90;15.40;;;;;;;;;;5035141;28;20197;-76
2023/10/27 10:02:59;;;;;;;33.92;16.48;;;;;;;;;;5029521;28;20211;-76
2023/10/27 10:05:26;;;;;;;30.67;15.80;;;;;;;;;;5025701;28;20194;-75
2023/10/27 10:07:55;;;;;;;30.17;15.60;;;;;;;;;;5026331;28;20255;-76
2023/10/27 10:10:22;;;;;;;32.20;16.40;;;;;;;;;;5038908;28;20186;-76
2023/10/27 10:13:01;;;;;;;29.10;15.60;;;;;;;;;;5038323;28;20190;-77
2023/10/27 10:15:34;;;;;;;28.90;14.45;;;;;;;;;;5028036;28;20724;-76
2023/10/27 10:18:00;;;;;;;29.45;15.40;;;;;;;;;;5028357;28;20288;-76
2023/10/27 10:20:49;;;;;;;28.85;15.00;;;;;;;;;;5039784;28;20182;-77
2023/10/27 10:23:16;;;;;;;29.45;15.30;;;;;;;;;;5012590;28;20226;-77
2023/10/27 10:25:53;;;;;;;26.45;14.80;;;;;;;;;;5029286;28;20244;-77
2023/10/27 10:28:18;;;;;;;27.38;14.48;;;;;;;;;;5012366;28;20200;-77
2023/10/27 10:30:48;;;;;;;28.33;15.40;;;;;;;;;;5031516;28;20670;-77
2023/10/27 10:33:16;;;;;;;28.55;14.30;;;;;;;;;;5035837;28;20183;-77
2023/10/27 10:35:50;;;;;;;28.90;14.90;;;;;;;;;;5035701;28;20195;-78
2023/10/27 10:38:21;;;;;;;27.90;15.63;;;;;;;;;;5026372;28;20190;-78
2023/10/27 10:40:51;;;;;;;26.48;14.63;;;;;;;;;;5047228;28;20666;-77
2023/10/27 10:43:30;;;;;;;26.70;14.60;;;;;;;;;;5002933;28;20650;-77
2023/10/27 10:46:04;;;;;;;27.48;15.43;;;;;;;;;;5043246;28;20249;-76
2023/10/27 10:48:40;;;;;;;27.63;14.48;;;;;;;;;;5018160;28;20187;-76
2023/10/27 10:51:13;;;;;;;25.13;14.30;;;;;;;;;;5011087;28;20186;-77
2023/10/27 10:53:39;;;;;;;28.30;14.85;;;;;;;;;;5033403;28;20197;-77
2023/10/27 10:56:04;;;;;;;24.65;13.63;;;;;;;;;;5018542;28;20206;-77
2023/10/27 10:58:32;;;;;;;26.50;14.75;;;;;;;;;;5040971;28;20178;-77
2023/10/27 11:00:59;;;;;;;23.58;13.93;;;;;;;;;;5026979;28;20328;-77
2023/10/27 11:03:27;;;;;;;28.00;15.60;;;;;;;;;;5017184;28;20206;-76
2023/10/27 11:05:58;;;;;;;25.65;15.07;;;;;;;;;;5030099;28;20187;-76
2023/10/27 11:08:25;;;;;;;23.02;13.20;;;;;;;;;;5033038;28;20276;-76
2023/10/27 11:11:16;;;;;;;22.75;13.27;;;;;;;;;;5020325;28;20197;-76
2023/10/27 11:13:57;;;;;;;21.48;13.00;;;;;;;;;;5040449;28;20306;-77
2023/10/27 11:16:23;;;;;;;19.33;12.60;;;;;;;;;;5023645;28;20548;-76
2023/10/27 11:18:59;;;;;;;21.88;12.82;;;;;;;;;;5032625;28;20203;-76
2023/10/27 11:21:27;;;;;;;22.98;13.07;;;;;;;;;;5023090;28;20200;-76
2023/10/27 11:23:53;;;;;;;20.95;12.25;;;;;;;;;;5032986;28;20245;-76
2023/10/27 11:26:26;;;;;;;17.88;12.20;;;;;;;;;;5028369;28;20566;-76
2023/10/27 11:28:56;;;;;;;21.00;13.45;;;;;;;;;;5028860;28;20197;-77
2023/10/27 11:31:21;;;;;;;21.67;13.18;;;;;;;;;;5022751;28;20232;-76
2023/10/27 11:34:05;;;;;;;22.73;13.48;;;;;;;;;;5033470;28;20190;-76
2023/10/27 11:36:35;;;;;;;21.85;13.25;;;;;;;;;;5031228;28;20194;-76
2023/10/27 11:39:17;;;;;;;20.55;12.85;;;;;;;;;;5032246;28;20225;-75
2023/10/27 11:41:59;;;;;;;21.20;12.25;;;;;;;;;;5028366;28;20670;-77
2023/10/27 11:44:25;;;;;;;18.77;11.93;;;;;;;;;;5014569;28;20247;-76
2023/10/27 11:46:54;;;;;;;20.52;12.02;;;;;;;;;;5029527;28;20591;-76
2023/10/27 11:49:19;;;;;;;18.60;12.43;;;;;;;;;;5019189;28;20481;-76
2023/10/27 11:51:49;;;;;;;18.58;11.88;;;;;;;;;;5019963;28;20258;-76
2023/10/27 11:54:15;;;;;;;18.20;11.95;;;;;;;;;;5012055;28;20206;-76
2023/10/27 11:56:41;;;;;;;17.98;12.13;;;;;;;;;;5027922;28;20193;-76
2023/10/27 11:59:07;;;;;;;19.15;11.68;;;;;;;;;;5028059;28;20205;-76
2023/10/27 12:01:33;;;;;;;19.73;12.07;;;;;;;;;;5008741;28;20285;-76
2023/10/27 12:04:00;;;;;;;20.10;12.18;;;;;;;;;;5016170;28;20210;-76
2023/10/27 12:06:25;;;;;;;16.92;11.32;;;;;;;;;;5039810;28;20202;-76
2023/10/27 12:08:51;;;;;;;16.92;12.45;;;;;;;;;;5020328;28;20183;-76
2023/10/27 12:11:17;;;;;;;18.48;11.40;;;;;;;;;;5022319;28;20181;-77
2023/10/27 12:13:43;;;;;;;16.30;10.93;;;;;;;;;;5020230;28;20187;-77
2023/10/27 12:16:09;;;;;;;15.73;11.30;;;;;;;;;;5014246;28;20605;-76
2023/10/27 12:18:34;;;;;;;16.85;10.93;;;;;;;;;;5043439;28;20191;-76
2023/10/27 12:21:03;;;;;;;16.40;11.00;;;;;;;;;;5013503;28;20200;-76
2023/10/27 12:23:32;;;;;;;17.88;11.48;;;;;;;;;;5009569;28;20212;-76
2023/10/27 12:25:59;;;;;;;17.80;12.20;;;;;;;;;;5019401;28;20186;-77
2023/10/27 12:28:24;;;;;;;18.45;11.57;;;;;;;;;;5017719;28;20195;-77
2023/10/27 12:30:49;;;;;;;15.55;11.38;;;;;;;;;;5022178;28;20733;-77
2023/10/27 12:33:15;;;;;;;16.70;11.45;;;;;;;;;;5030138;28;20192;-77
2023/10/27 12:35:40;;;;;;;17.42;11.20;;;;;;;;;;5020640;28;20231;-76
2023/10/27 12:38:06;;;;;;;18.05;11.30;;;;;;;;;;5020853;28;20186;-76
2023/10/27 12:40:34;;;;;;;17.33;11.82;;;;;;;;;;5037447;28;20198;-76
2023/10/27 12:43:00;;;;;;;16.38;11.80;;;;;;;;;;5028573;28;20206;-75
2023/10/27 12:45:26;;;;;;;16.52;11.20;;;;;;;;;;5022896;28;20183;-75
2023/10/27 12:47:51;;;;;;;16.95;12.25;;;;;;;;;;5008909;28;20293;-76
2023/10/27 12:50:17;;;;;;;18.42;12.10;;;;;;;;;;5017465;28;20194;-76
2023/10/27 12:52:42;;;;;;;15.50;11.60;;;;;;;;;;5033550;28;20194;-75
2023/10/27 12:55:09;;;;;;;16.58;10.57;;;;;;;;;;5031151;28;20190;-76
2023/10/27 12:57:35;;;;;;;15.50;11.35;;;;;;;;;;5017714;28;20196;-76
2023/10/27 13:00:11;;;;;;;17.40;11.48;;;;;;;;;;5039934;28;20653;-74
2023/10/27 13:02:36;;;;;;;17.50;11.45;;;;;;;;;;5015516;28;20201;-74
2023/10/27 13:05:02;;;;;;;16.30;11.48;;;;;;;;;;5040551;28;20543;-74
2023/10/27 13:07:27;;;;;;;17.23;11.20;;;;;;;;;;5029957;28;20178;-73
2023/10/27 13:09:52;;;;;;;15.13;11.07;;;;;;;;;;5023577;28;20190;-75
2023/10/27 13:12:22;;;;;;;15.40;11.27;;;;;;;;;;5021640;28;20595;-75
2023/10/27 13:14:48;;;;;;;16.88;11.45;;;;;;;;;;5018158;28;20265;-74
2023/10/27 13:17:13;;;;;;;16.90;11.13;;;;;;;;;;5025642;28;20190;-74
2023/10/27 13:19:39;;;;;;;15.60;11.10;;;;;;;;;;5027357;28;20252;-73
2023/10/27 13:22:04;;;;;;;16.75;11.25;;;;;;;;;;5046769;28;20236;-73
2023/10/27 13:24:32;;;;;;;16.98;11.15;;;;;;;;;;5033322;28;20182;-74
2023/10/27 13:26:57;;;;;;;15.77;10.98;;;;;;;;;;5017498;28;20614;-74
2023/10/27 13:29:22;;;;;;;15.60;11.23;;;;;;;;;;5047258;28;20194;-74
2023/10/27 13:31:48;;;;;;;15.02;10.90;;;;;;;;;;5040660;28;20670;-74
2023/10/27 13:34:14;;;;;;;18.30;12.15;;;;;;;;;;5028186;28;20195;-74
2023/10/27 13:36:43;;;;;;;14.75;11.20;;;;;;;;;;5026838;28;20257;-74
2023/10/27 13:39:09;;;;;;;15.60;11.13;;;;;;;;;;5013394;28;20206;-75
2023/10/27 13:41:35;;;;;;;14.82;11.32;;;;;;;;;;5027328;28;20190;-75
2023/10/27 13:44:07;;;;;;;15.05;11.45;;;;;;;;;;5027882;28;20214;-75
2023/10/27 13:46:35;;;;;;;17.20;11.40;;;;;;;;;;5033591;28;20321;-75
2023/10/27 13:49:10;;;;;;;13.63;10.43;;;;;;;;;;5032562;28;20183;-75
2023/10/27 13:51:39;;;;;;;16.42;11.05;;;;;;;;;;5043111;28;20216;-76
2023/10/27 13:54:06;;;;;;;16.05;11.07;;;;;;;;;;5025255;28;20736;-77
2023/10/27 13:56:34;;;;;;;16.40;11.70;;;;;;;;;;5037162;28;20225;-78
2023/10/27 13:58:59;;;;;;;18.27;11.77;;;;;;;;;;5036800;28;20191;-77
2023/10/27 14:01:25;;;;;;;19.98;12.10;;;;;;;;;;5018035;28;20588;-77
2023/10/27 14:03:50;;;;;;;19.25;11.85;;;;;;;;;;5022159;28;20234;-77
2023/10/27 14:06:17;;;;;;;16.77;11.48;;;;;;;;;;5044516;28;20186;-77
2023/10/27 14:08:42;;;;;;;16.65;11.43;;;;;;;;;;5032279;28;20193;-76
2023/10/27 14:11:08;;;;;;;15.90;11.85;;;;;;;;;;5029846;28;20661;-77
2023/10/27 14:13:33;;;;;;;16.67;11.77;;;;;;;;;;5029580;28;20178;-76